Time;durP1;ratioP1;P1;durP2;ratioP2;P2;SDS_P1;SDS_P2;PMS_P1;PMS_P2;Temp;Humidity;BMP_temperature;BMP_pressure;BME280_temperature;BME280_humidity;BME280_pressure;Samples;Min_cycle;Max_cycle;Signal;HPM_P1;HPM_P2
2022/05/09 00:05:13;;;;;;;4.72;3.45;;;19.70;71.00;;;;;;10907008;32;20019;-73
2022/05/09 00:11:15;;;;;;;4.32;3.42;;;19.70;71.00;;;;;;10906621;32;20062;-73
2022/05/09 00:17:18;;;;;;;6.10;3.62;;;19.70;71.00;;;;;;10905530;32;20019;-73
2022/05/09 00:23:45;;;;;;;4.55;3.08;;;19.70;70.80;;;;;;10906375;32;20061;-73
2022/05/09 00:29:52;;;;;;;5.60;3.00;;;19.70;70.40;;;;;;10906137;32;20027;-73
2022/05/09 00:35:54;;;;;;;5.37;3.95;;;19.60;70.30;;;;;;10905964;32;20046;-73
2022/05/09 00:42:40;;;;;;;6.07;3.72;;;19.50;70.30;;;;;;10905283;32;20031;-72
2022/05/09 00:48:42;;;;;;;5.22;3.05;;;19.50;70.40;;;;;;10940150;32;20042;-73
2022/05/09 00:54:56;;;;;;;5.20;4.00;;;19.50;70.50;;;;;;10939336;32;20027;-74
2022/05/09 01:00:58;;;;;;;5.30;3.35;;;19.60;70.50;;;;;;10939362;32;20410;-73
2022/05/09 01:07:01;;;;;;;7.93;4.57;;;19.50;70.90;;;;;;10938795;32;20035;-72
2022/05/09 01:13:07;;;;;;;6.70;4.32;;;19.40;71.10;;;;;;10935942;32;20031;-72
2022/05/09 01:19:40;;;;;;;6.78;4.22;;;19.40;71.20;;;;;;10913763;32;20305;-73
2022/05/09 01:25:43;;;;;;;4.82;3.33;;;19.50;70.80;;;;;;10903553;32;20049;-73
2022/05/09 01:31:48;;;;;;;4.60;3.42;;;19.50;71.30;;;;;;10904413;32;20046;-73
2022/05/09 01:38:04;;;;;;;5.60;4.07;;;19.50;71.70;;;;;;10904325;32;20011;-73
2022/05/09 01:44:08;;;;;;;6.85;3.72;;;19.40;71.70;;;;;;10904547;32;20027;-73
2022/05/09 01:50:10;;;;;;;5.60;4.28;;;19.40;71.70;;;;;;10903871;32;20054;-73
2022/05/09 01:56:13;;;;;;;5.40;2.95;;;19.30;71.70;;;;;;10904098;32;20042;-73
2022/05/09 02:02:19;;;;;;;6.18;3.53;;;19.30;71.70;;;;;;10900119;32;20023;-72
2022/05/09 02:08:23;;;;;;;5.43;3.83;;;19.20;71.80;;;;;;10902376;32;20063;-73
2022/05/09 02:14:25;;;;;;;5.35;3.80;;;19.20;71.60;;;;;;10902081;32;20019;-73
2022/05/09 02:20:27;;;;;;;5.60;3.22;;;19.20;71.70;;;;;;10907678;32;20031;-73
2022/05/09 02:26:30;;;;;;;9.05;4.53;;;19.10;71.70;;;;;;10910491;32;20019;-72
2022/05/09 02:32:32;;;;;;;5.60;3.40;;;19.00;71.90;;;;;;10910315;32;20042;-72
2022/05/09 02:38:35;;;;;;;3.90;2.72;;;19.00;71.90;;;;;;10909306;32;20448;-72
2022/05/09 02:44:37;;;;;;;4.93;3.60;;;18.90;71.90;;;;;;10904913;32;20046;-73
2022/05/09 02:50:39;;;;;;;6.53;3.67;;;18.90;71.90;;;;;;10909634;32;20019;-72
2022/05/09 02:56:41;;;;;;;6.10;3.62;;;18.90;72.00;;;;;;10908690;32;20047;-73
2022/05/09 03:04:38;;;;;;;3.70;2.80;;;18.90;72.00;;;;;;10909363;32;20415;-72
2022/05/09 03:09:06;;;;;;;5.72;3.58;;;18.90;72.00;;;;;;10908927;32;20046;-73
2022/05/09 03:15:08;;;;;;;7.85;5.30;;;18.90;72.20;;;;;;10908714;32;20023;-73
2022/05/09 03:21:10;;;;;;;6.15;4.05;;;18.80;72.20;;;;;;10908622;32;20015;-73
2022/05/09 03:27:14;;;;;;;8.20;4.37;;;18.80;72.40;;;;;;10908422;32;20047;-72
2022/05/09 03:33:20;;;;;;;5.68;4.45;;;18.70;72.40;;;;;;10906987;32;20019;-72
2022/05/09 03:39:22;;;;;;;7.78;4.87;;;18.70;72.70;;;;;;10907975;32;20016;-73
2022/05/09 03:46:02;;;;;;;5.93;3.78;;;18.70;72.70;;;;;;10906929;32;20050;-73
2022/05/09 03:52:05;;;;;;;5.95;4.03;;;18.60;73.30;;;;;;10907589;32;20042;-72
2022/05/09 03:58:07;;;;;;;7.95;5.50;;;18.50;73.70;;;;;;10907190;32;20036;-72
2022/05/09 04:04:53;;;;;;;5.93;3.90;;;18.40;73.90;;;;;;10907164;32;20038;-72
2022/05/09 04:10:55;;;;;;;7.15;4.60;;;18.40;74.20;;;;;;10906676;32;20073;-72
2022/05/09 04:17:10;;;;;;;8.35;4.72;;;18.30;74.50;;;;;;10906578;32;20354;-72
2022/05/09 04:23:13;;;;;;;7.80;5.72;;;18.30;74.40;;;;;;10906359;32;20312;-72
2022/05/09 04:29:15;;;;;;;7.20;5.35;;;18.30;74.20;;;;;;10906008;32;20023;-72
2022/05/09 04:35:22;;;;;;;7.65;4.95;;;18.40;74.00;;;;;;10906027;32;20038;-73
2022/05/09 04:41:46;;;;;;;8.55;5.75;;;18.40;73.60;;;;;;10905271;32;20097;-72
2022/05/09 04:47:50;;;;;;;7.93;5.30;;;18.50;73.50;;;;;;10904495;32;20054;-73
2022/05/09 04:54:24;;;;;;;8.23;4.15;;;18.50;73.40;;;;;;10904488;32;20066;-72
2022/05/09 05:00:27;;;;;;;7.18;4.68;;;18.40;73.50;;;;;;10905218;32;20339;-72
2022/05/09 05:06:49;;;;;;;8.02;5.20;;;18.40;73.50;;;;;;10901978;32;20038;-73
2022/05/09 05:12:51;;;;;;;7.30;4.75;;;18.40;73.50;;;;;;10900853;32;20027;-72
2022/05/09 05:18:53;;;;;;;5.45;3.85;;;18.40;73.60;;;;;;10901160;32;20031;-73
2022/05/09 05:24:55;;;;;;;5.80;4.05;;;18.50;73.70;;;;;;10900993;32;20023;-73
2022/05/09 05:31:11;;;;;;;6.65;4.87;;;18.50;73.70;;;;;;10901131;32;20065;-74
2022/05/09 05:37:16;;;;;;;5.55;3.97;;;18.60;73.60;;;;;;10902159;32;20027;-73
2022/05/09 05:43:18;;;;;;;5.43;4.22;;;18.70;73.50;;;;;;10903653;32;20032;-73
2022/05/09 05:49:47;;;;;;;5.50;3.85;;;18.80;73.50;;;;;;10904034;32;20027;-72
2022/05/09 05:55:49;;;;;;;4.53;2.83;;;18.90;73.60;;;;;;10908671;32;20042;-72
2022/05/09 06:01:52;;;;;;;7.90;3.78;;;19.10;73.30;;;;;;10910793;32;20023;-74
2022/05/09 06:07:55;;;;;;;6.30;4.53;;;19.20;73.10;;;;;;10911816;32;20441;-72
2022/05/09 06:13:59;;;;;;;10.43;4.07;;;19.30;72.80;;;;;;10933930;27;20453;-72
2022/05/09 06:20:04;;;;;;;5.28;3.78;;;19.50;72.60;;;;;;10935259;32;20026;-72
2022/05/09 06:26:06;;;;;;;4.18;3.40;;;19.60;72.40;;;;;;10938184;32;20027;-72
2022/05/09 06:32:08;;;;;;;6.37;3.37;;;19.60;72.20;;;;;;10925206;32;20657;-73
2022/05/09 06:38:16;;;;;;;5.40;3.30;;;19.60;72.40;;;;;;10920047;32;20019;-73
2022/05/09 06:44:22;;;;;;;6.65;4.45;;;19.60;72.40;;;;;;10912322;32;20026;-74
2022/05/09 06:50:33;;;;;;;6.50;3.25;;;19.70;72.20;;;;;;10909139;32;20085;-75
2022/05/09 06:56:36;;;;;;;8.90;3.70;;;19.80;71.80;;;;;;10895339;32;20324;-73
2022/05/09 07:02:38;;;;;;;9.55;3.97;;;20.00;71.20;;;;;;10905200;32;20035;-74
2022/05/09 07:08:42;;;;;;;10.55;3.17;;;20.10;70.80;;;;;;10908558;32;20031;-76
2022/05/09 07:14:44;;;;;;;4.82;3.15;;;20.30;70.80;;;;;;10908884;32;20041;-74
2022/05/09 07:20:46;;;;;;;4.25;3.12;;;20.40;70.30;;;;;;10906661;32;20062;-76
2022/05/09 07:26:49;;;;;;;4.75;3.20;;;20.60;69.60;;;;;;10938920;32;20285;-74
2022/05/09 07:33:11;;;;;;;4.18;2.62;;;20.70;69.70;;;;;;10946375;32;20042;-73
2022/05/09 07:39:13;;;;;;;4.40;2.80;;;20.80;68.80;;;;;;10945582;32;20022;-74
2022/05/09 07:45:19;;;;;;;6.87;3.00;;;20.90;68.60;;;;;;10932149;32;20343;-74
2022/05/09 07:51:30;;;;;;;5.93;3.90;;;21.00;68.10;;;;;;10941286;32;20026;-73
2022/05/09 07:57:32;;;;;;;5.97;3.83;;;21.10;66.40;;;;;;10941133;32;20053;-73
2022/05/09 08:03:37;;;;;;;9.23;3.85;;;21.30;65.90;;;;;;10916639;32;20027;-73
2022/05/09 08:09:38;;;;;;;6.00;4.43;;;21.40;65.20;;;;;;10906758;32;20027;-73
2022/05/09 08:16:19;;;;;;;5.43;3.50;;;21.50;64.00;;;;;;10903133;32;20050;-74
2022/05/09 08:22:28;;;;;;;4.57;3.45;;;21.70;63.20;;;;;;10902175;32;20027;-76
2022/05/09 08:28:31;;;;;;;7.32;4.57;;;21.80;63.00;;;;;;10905316;32;20049;-73
2022/05/09 08:34:34;;;;;;;4.78;3.22;;;21.90;62.50;;;;;;10900624;32;20062;-76
2022/05/09 08:41:25;;;;;;;8.15;5.05;;;22.00;61.70;;;;;;10905617;32;20028;-74
2022/05/09 08:48:01;;;;;;;7.65;4.50;;;22.20;60.60;;;;;;10865081;32;20035;-73
2022/05/09 08:54:08;;;;;;;7.45;5.25;;;22.20;60.80;;;;;;10860873;32;20019;-74
2022/05/09 09:00:14;;;;;;;3.53;3.12;;;22.30;59.90;;;;;;10861989;32;20035;-75
2022/05/09 09:06:36;;;;;;;6.22;4.20;;;22.50;59.60;;;;;;10863707;32;20027;-73
2022/05/09 09:12:59;;;;;;;4.40;3.30;;;22.70;58.90;;;;;;10851860;32;20040;-75
2022/05/09 09:19:39;;;;;;;4.68;3.55;;;22.80;58.80;;;;;;10866656;32;20023;-73
2022/05/09 09:25:59;;;;;;;11.23;5.10;;;23.00;58.10;;;;;;10934253;32;20347;-79
2022/05/09 09:32:09;;;;;;;8.95;4.68;;;23.10;57.70;;;;;;10910305;32;20054;-72
2022/05/09 09:38:53;;;;;;;6.20;4.18;;;23.30;57.20;;;;;;10909324;32;20211;-73
2022/05/09 09:44:58;;;;;;;8.73;5.12;;;23.40;56.50;;;;;;10901262;32;20031;-74
2022/05/09 09:51:12;;;;;;;6.47;4.85;;;23.60;56.10;;;;;;10921343;32;20039;-71
2022/05/09 09:57:20;;;;;;;7.95;4.40;;;23.60;55.90;;;;;;10905250;32;20041;-72
2022/05/09 10:03:30;;;;;;;6.43;4.13;;;23.70;55.50;;;;;;10904536;32;20046;-71
2022/05/09 10:09:40;;;;;;;7.40;4.97;;;23.80;55.30;;;;;;10904222;32;20031;-71
2022/05/09 10:15:42;;;;;;;6.40;4.57;;;24.00;55.40;;;;;;10903616;32;20046;-76
2022/05/09 10:28:12;;;;;;;5.65;3.37;;;24.30;55.30;;;;;;10903841;32;20062;-72
2022/05/09 10:34:32;;;;;;;7.65;4.57;;;24.30;56.90;;;;;;10908995;32;20027;-72
2022/05/09 10:40:43;;;;;;;5.87;4.35;;;24.40;54.30;;;;;;10918076;32;20031;-73
2022/05/09 10:46:52;;;;;;;10.80;4.78;;;24.60;54.70;;;;;;10916871;32;20051;-71
2022/05/09 10:53:10;;;;;;;6.03;4.40;;;24.90;54.00;;;;;;10909588;32;20019;-72
2022/05/09 10:59:19;;;;;;;;;;;25.10;52.70;;;;;;10909516;32;20355;-73
2022/05/09 11:05:24;;;;;;;6.82;4.47;;;25.30;53.50;;;;;;10909092;32;19934;-73
2022/05/09 11:11:56;;;;;;;6.43;4.22;;;25.30;52.80;;;;;;10905852;32;20046;-76
2022/05/09 11:18:23;;;;;;;11.18;5.78;;;25.50;52.40;;;;;;10908440;32;20050;-75
2022/05/09 11:24:58;;;;;;;7.97;4.28;;;25.70;51.60;;;;;;10936785;32;20069;-73
2022/05/09 11:31:53;;;;;;;5.45;3.30;;;25.90;51.20;;;;;;10943973;32;20395;-70
2022/05/09 11:38:29;;;;;;;8.38;3.40;;;26.20;51.00;;;;;;10831423;32;20055;-72
2022/05/09 11:44:44;;;;;;;4.05;3.12;;;26.50;50.50;;;;;;10829918;32;20412;-76
2022/05/09 11:51:08;;;;;;;6.00;3.78;;;26.70;49.70;;;;;;10816432;32;20024;-74
2022/05/09 11:57:21;;;;;;;7.37;4.75;;;26.60;50.00;;;;;;10819048;32;20340;-75
2022/05/09 12:03:51;;;;;;;5.15;3.90;;;26.70;49.90;;;;;;10819172;32;20082;-74
2022/05/09 12:10:15;;;;;;;5.78;4.37;;;26.80;49.90;;;;;;10836110;32;20070;-74
2022/05/09 12:16:35;;;;;;;4.55;3.37;;;27.10;49.60;;;;;;10942288;32;20027;-74
2022/05/09 12:22:41;;;;;;;9.38;5.15;;;27.20;49.30;;;;;;10944938;32;20331;-72
2022/05/09 12:28:43;;;;;;;6.25;4.62;;;27.10;48.80;;;;;;10946213;32;20037;-71
2022/05/09 12:34:48;;;;;;;5.97;3.17;;;27.00;49.20;;;;;;10915664;32;20023;-69
2022/05/09 12:41:09;;;;;;;6.65;4.57;;;27.00;48.80;;;;;;10902303;32;20042;-69
2022/05/09 12:47:25;;;;;;;8.27;4.37;;;26.80;49.00;;;;;;10905423;32;20027;-69
2022/05/09 12:54:09;;;;;;;5.87;4.12;;;26.80;49.30;;;;;;10844648;32;20324;-69
2022/05/09 13:00:24;;;;;;;6.27;4.23;;;26.80;49.30;;;;;;10864269;32;20024;-70
2022/05/09 13:06:38;;;;;;;6.70;4.65;;;26.70;48.40;;;;;;10860490;32;20085;-69
2022/05/09 13:12:44;;;;;;;6.40;4.07;;;26.70;48.20;;;;;;10857364;32;20032;-69
2022/05/09 13:18:47;;;;;;;7.82;3.78;;;26.70;48.40;;;;;;10853392;32;20043;-70
2022/05/09 13:25:10;;;;;;;6.20;3.53;;;26.70;48.60;;;;;;10907567;32;20433;-69
2022/05/09 13:31:24;;;;;;;5.47;3.75;;;26.80;48.20;;;;;;10904053;32;20351;-70
2022/05/09 13:37:34;;;;;;;6.43;3.67;;;26.70;48.00;;;;;;10904386;32;20347;-69
2022/05/09 13:43:39;;;;;;;6.65;3.25;;;26.70;48.30;;;;;;10904152;32;21182;-69
2022/05/09 13:49:44;;;;;;;5.72;3.60;;;26.80;47.70;;;;;;10903288;32;20391;-69
2022/05/09 13:55:46;;;;;;;7.80;3.65;;;26.80;47.40;;;;;;10911213;32;20050;-70
2022/05/09 14:01:53;;;;;;;5.28;3.85;;;26.80;47.10;;;;;;10903850;32;20408;-70
2022/05/09 14:07:59;;;;;;;10.30;4.23;;;26.80;47.00;;;;;;10907382;32;20055;-74
2022/05/09 14:14:03;;;;;;;5.75;3.22;;;26.80;47.20;;;;;;10937824;27;20411;-72
2022/05/09 14:20:09;;;;;;;9.27;4.03;;;26.80;47.30;;;;;;10958010;32;20053;-74
2022/05/09 14:32:50;;;;;;;7.65;4.97;;;26.70;47.30;;;;;;10954005;32;20382;-69
2022/05/09 14:38:57;;;;;;;5.97;4.03;;;26.70;46.80;;;;;;10934468;32;20023;-68
2022/05/09 14:45:02;;;;;;;10.95;4.68;;;26.60;47.10;;;;;;10947681;32;20059;-69
2022/05/09 14:51:05;;;;;;;6.68;4.30;;;26.60;47.30;;;;;;10922014;32;20106;-69
2022/05/09 14:57:25;;;;;;;13.13;4.68;;;26.60;47.20;;;;;;10907849;32;20023;-69
2022/05/09 15:03:29;;;;;;;7.10;3.35;;;26.70;46.90;;;;;;10941220;32;20054;-69
2022/05/09 15:09:32;;;;;;;9.27;3.87;;;26.80;47.00;;;;;;10933654;32;20024;-70
2022/05/09 15:15:34;;;;;;;6.85;3.87;;;26.90;46.60;;;;;;10908815;32;20042;-69
2022/05/09 15:21:37;;;;;;;7.35;3.72;;;26.90;46.70;;;;;;10906659;32;20047;-70
2022/05/09 15:27:52;;;;;;;7.03;3.50;;;27.00;46.50;;;;;;10890296;32;20391;-69
2022/05/09 15:33:54;;;;;;;5.50;3.97;;;27.10;46.10;;;;;;10907911;32;20062;-69
2022/05/09 15:39:56;;;;;;;9.82;3.70;;;27.10;45.70;;;;;;10908244;32;20378;-70
2022/05/09 15:46:29;;;;;;;6.62;3.90;;;27.10;45.30;;;;;;10907296;32;20054;-69
2022/05/09 15:52:31;;;;;;;11.73;4.28;;;27.30;45.10;;;;;;10894084;32;20049;-69
2022/05/09 15:58:40;;;;;;;6.53;3.72;;;27.30;45.40;;;;;;10904997;32;20137;-70
2022/05/09 16:04:43;;;;;;;7.70;3.97;;;27.30;45.10;;;;;;10905011;32;20042;-69
2022/05/09 16:17:06;;;;;;;5.82;3.25;;;27.40;45.40;;;;;;10940902;32;20057;-69
2022/05/09 16:23:09;;;;;;;8.07;3.05;;;27.40;45.60;;;;;;10928827;32;20042;-70
2022/05/09 16:29:14;;;;;;;3.60;3.17;;;27.40;45.50;;;;;;10930063;32;20312;-70
2022/05/09 16:35:18;;;;;;;8.45;3.20;;;27.40;45.80;;;;;;10943345;32;20089;-70
2022/05/09 16:41:20;;;;;;;4.85;2.83;;;27.30;45.90;;;;;;10940942;32;20047;-70
2022/05/09 16:47:23;;;;;;;5.95;3.55;;;27.30;45.80;;;;;;10937965;32;20046;-70
2022/05/09 16:53:25;;;;;;;4.37;3.40;;;27.30;45.50;;;;;;10942543;32;20027;-69
2022/05/09 16:59:31;;;;;;;6.07;3.58;;;27.30;45.50;;;;;;10926557;32;20062;-69
2022/05/09 17:05:33;;;;;;;4.37;2.60;;;27.30;45.70;;;;;;10937663;32;20046;-70
2022/05/09 17:11:36;;;;;;;4.75;3.40;;;27.30;45.90;;;;;;10560640;32;12144791;-70
2022/05/09 17:17:41;;;;;;;5.40;2.92;;;27.30;46.10;;;;;;10863154;32;20069;-70
2022/05/09 17:23:43;;;;;;;10.18;2.55;;;27.40;46.40;;;;;;10864002;32;20032;-74
2022/05/09 17:29:45;;;;;;;3.85;2.08;;;27.80;46.50;;;;;;10864300;32;20396;-74
2022/05/09 17:42:16;;;;;;;3.75;2.67;;;28.80;45.50;;;;;;10863860;32;20027;-75
2022/05/09 17:48:19;;;;;;;6.85;2.58;;;29.00;45.20;;;;;;10931392;32;20395;-75
2022/05/09 17:54:23;;;;;;;3.62;2.40;;;28.90;45.40;;;;;;10949450;32;20031;-75
2022/05/09 18:00:25;;;;;;;4.47;2.75;;;28.80;45.90;;;;;;10947230;32;20031;-75
2022/05/09 18:06:28;;;;;;;3.72;2.33;;;28.20;46.80;;;;;;10949290;32;20026;-75
2022/05/09 18:12:31;;;;;;;4.90;2.62;;;27.60;47.70;;;;;;10949037;32;20023;-74
2022/05/09 18:18:42;;;;;;;5.25;3.35;;;26.80;49.00;;;;;;10948698;32;20023;-74
2022/05/09 18:24:44;;;;;;;7.37;2.35;;;26.20;49.90;;;;;;10948711;32;20031;-75
2022/05/09 18:31:23;;;;;;;4.15;2.95;;;25.70;50.60;;;;;;10948554;32;20058;-75
2022/05/09 18:37:29;;;;;;;;;;;25.40;51.10;;;;;;10947386;32;20035;-74
2022/05/09 18:43:43;;;;;;;3.22;2.25;;;25.20;51.70;;;;;;10947940;32;19930;-74
2022/05/09 18:56:12;;;;;;;2.58;2.12;;;24.80;52.50;;;;;;10921074;32;20026;-75
2022/05/09 19:02:14;;;;;;;5.25;2.42;;;24.60;52.90;;;;;;10908645;32;20028;-76
2022/05/09 19:08:31;;;;;;;5.95;2.55;;;24.40;53.00;;;;;;10909474;32;20027;-74
2022/05/09 19:14:37;;;;;;;3.00;2.03;;;24.30;53.30;;;;;;10893119;32;20016;-75
2022/05/09 19:21:27;;;;;;;3.67;2.45;;;24.20;53.70;;;;;;10895802;32;20019;-74
2022/05/09 19:27:35;;;;;;;3.83;2.58;;;24.00;54.00;;;;;;10793767;33;20051;-74
2022/05/09 19:33:44;;;;;;;5.80;2.80;;;23.90;54.30;;;;;;10782633;33;20043;-74
2022/05/09 19:39:46;;;;;;;3.62;2.50;;;23.70;55.40;;;;;;10781673;33;20478;-75
2022/05/09 19:46:09;;;;;;;4.47;2.75;;;23.60;56.50;;;;;;10791720;33;20028;-74
2022/05/09 19:58:36;;;;;;;8.40;3.40;;;23.40;57.20;;;;;;10768202;33;20059;-74
2022/05/09 20:04:40;;;;;;;2.72;2.33;;;23.30;57.70;;;;;;10755611;33;20036;-74
2022/05/09 20:10:43;;;;;;;5.37;3.47;;;23.20;58.80;;;;;;10873427;32;20035;-74
2022/05/09 20:16:45;;;;;;;5.12;2.92;;;23.00;59.70;;;;;;10906467;32;20054;-75
2022/05/09 20:22:52;;;;;;;4.20;2.72;;;23.00;60.20;;;;;;10907023;32;20035;-75
2022/05/09 20:35:36;;;;;;;5.28;3.30;;;22.90;60.10;;;;;;10906534;32;20297;-74
2022/05/09 20:41:39;;;;;;;5.28;3.33;;;22.80;60.20;;;;;;10902960;32;20023;-74
2022/05/09 20:47:42;;;;;;;4.22;3.08;;;22.80;60.50;;;;;;10906095;32;20031;-74
2022/05/09 20:53:44;;;;;;;7.87;3.60;;;22.70;61.20;;;;;;10905873;32;20016;-75
2022/05/09 20:59:53;;;;;;;5.00;3.12;;;22.60;61.10;;;;;;10905820;32;20046;-75
2022/05/09 21:06:22;;;;;;;5.37;3.28;;;22.60;61.20;;;;;;10907884;32;20046;-74
2022/05/09 21:12:26;;;;;;;4.25;3.20;;;22.50;61.40;;;;;;10905401;32;20407;-75
2022/05/09 21:18:28;;;;;;;12.85;4.10;;;22.50;61.60;;;;;;10905350;32;20019;-74
2022/05/09 21:24:30;;;;;;;4.30;3.12;;;22.40;61.70;;;;;;10900885;32;20046;-74
2022/05/09 21:30:32;;;;;;;5.22;3.67;;;22.30;62.00;;;;;;10905165;32;20380;-74
2022/05/09 21:36:37;;;;;;;6.80;4.68;;;22.20;62.20;;;;;;10904913;32;20027;-74
2022/05/09 21:42:45;;;;;;;6.60;4.10;;;22.10;62.60;;;;;;10905031;32;20058;-74
2022/05/09 21:48:48;;;;;;;7.40;4.50;;;22.10;63.40;;;;;;10904833;32;20027;-74
2022/05/09 21:54:50;;;;;;;6.53;4.53;;;22.10;63.30;;;;;;10904056;32;20267;-74
2022/05/09 22:00:53;;;;;;;7.57;4.40;;;21.90;63.40;;;;;;10900722;32;20054;-74
2022/05/09 22:06:58;;;;;;;5.62;3.62;;;21.80;63.80;;;;;;10904950;32;20033;-74
2022/05/09 22:13:31;;;;;;;4.82;3.58;;;21.80;64.00;;;;;;10922917;27;20031;-75
2022/05/09 22:19:35;;;;;;;4.43;2.85;;;21.70;64.20;;;;;;10941952;32;20323;-75
2022/05/09 22:25:38;;;;;;;6.40;3.60;;;21.70;64.90;;;;;;10941912;32;20015;-69
2022/05/09 22:31:40;;;;;;;10.23;5.97;;;21.60;65.10;;;;;;10927713;32;20063;-69
2022/05/09 22:37:45;;;;;;;5.68;3.45;;;21.60;65.10;;;;;;10945232;32;20019;-69
2022/05/09 22:43:47;;;;;;;11.15;5.93;;;21.50;65.20;;;;;;10943567;32;20031;-69
2022/05/09 22:49:51;;;;;;;6.78;3.78;;;21.50;65.30;;;;;;10934482;32;20101;-69
2022/05/09 22:55:55;;;;;;;7.93;4.82;;;21.40;65.50;;;;;;10934013;32;20342;-69
2022/05/09 23:01:57;;;;;;;6.37;3.78;;;21.40;66.30;;;;;;10947317;32;20047;-69
2022/05/09 23:15:35;;;;;;;7.07;4.72;;;21.20;66.40;;;;;;10947238;32;20046;-69
2022/05/09 23:21:37;;;;;;;8.60;5.37;;;21.10;67.00;;;;;;10946674;32;20054;-69
2022/05/09 23:27:40;;;;;;;8.85;4.82;;;21.10;67.20;;;;;;10946373;32;20044;-69
2022/05/09 23:33:46;;;;;;;7.32;5.20;;;21.00;67.10;;;;;;10946266;32;20320;-69
2022/05/09 23:39:51;;;;;;;7.53;5.10;;;20.90;67.30;;;;;;10945880;32;20023;-69
2022/05/09 23:45:53;;;;;;;8.70;5.57;;;20.90;67.20;;;;;;10927703;32;20022;-69
2022/05/09 23:51:55;;;;;;;9.80;5.47;;;20.80;67.40;;;;;;10945281;32;20035;-69
2022/05/09 23:57:57;;;;;;;8.35;5.65;;;20.70;67.70;;;;;;10945505;32;20054;-70
